Carpinteria, CA (93013)

9:10 PM PDT on September 15, 2014 (GMT -0700)
Carpinteria - El Carro | Change Station
CLOSE
Current Station
Personal Weather Station
Location: Carpinteria, CA
Elevation: 43 ft
Nearby Weather Stations
Active Advisory: Wind Advisory Active Notice: Record Report

Elev 43 ft 34.41 °N, 119.52 °W | Updated 10 minutes ago

Clear
Clear
71.3 °F
Feels Like 71.3 °F
N
0.0
Wind Variable Wind from SSW
Gusts 1.0 mph

Today
High -- | Low -- °F
--% Chance of Precip.
Yesterday
High -- | Low -- °F
Precip. -- in
6:41 AM 7:04 PM
Waning Gibbous, 49% visible
Pressure 29.76 in
Visibility 10.0 miles
Clouds Clear
Dew Point 67 °F
Humidity 87%
Rainfall 0.00 in
Snow Depth 0 in , 0 in , 2 in
UV 0 out of 12
Pollen 7.70 out of 12
PM2.5 Moderate
Flu Activity Not available.
METAR KSBA 160353Z 15003KT 10SM CLR 27/12 A2976 RMK AO2 SLP076 T02670122

More Conditions Fewer Conditions

Pressure 29.76 in
Visibility 10.0 miles
Clouds Clear
Dew Point 67 °F
Humidity 87%
Rainfall 0.00 in
Snow Depth 0 in , 0 in , 2 in
UV 0 out of 12
Pollen 7.70 out of 12
PM2.5 Moderate
Flu Activity Not available.
METAR KSBA 160353Z 15003KT 10SM CLR 27/12 A2976 RMK AO2 SLP076 T02670122

More Conditions Fewer Conditions

10-Day Weather Forecast

Almanac

Astronomy

Sep. 15, 2014 Rise Set
Actual Time 6:41 AM PDT 7:04 PM PDT
Civil Twilight 6:16 AM PDT 7:29 PM PDT
Nautical Twilight 5:46 AM PDT 7:59 PM PDT
Astronomical Twilight 5:16 AM PDT 8:29 PM PDT
Moon No Moon Rise 1:30 PM PDT (9/15)
Length of Visible Light 13h 13m
Length of Day
12h 23m
Tomorrow will be 2m 7s shorter.
Waning Gibbous, 49% of the Moon is Illuminated
Sep 16
Waning Gibbous
Sep 24
New
Oct 1
First Quarter
Oct 8
Full
Oct 15
Last Quarter

Today's Extremes

State Highs State Lows

Community

WunderPhotos

Upload Photos

1,753,699 photos uploaded!

Nearby

Air Quality

  Air Quality AQ Index Pollutant
Yesterday Good
PM10
Yesterday Good
OZONE
Current Moderate
PM2.5
Monday Good
PM2.5
Monday Good
OZONE
Tuesday Good
PM2.5
Tuesday Good
OZONE

Snow Depth

Station Depth Elevation
Cedar Pass 0 in 7100 ft
Echo Peak 0 in 7800 ft
CSS Lab 2 in 6900 ft
Spratt Creek 0 in 6200 ft
Monitor Pass 0 in 8350 ft

Earthquake Activity

City Distance Mag. Time & Date
Inyokern, California 134 miles 3.2 5:56 PM PDT
2014-09-14
Minimum magnitude displayed is 2.5.

Coastal Water Temperatures

Place Temperature
Santa Monica Pier 66.9 °F
Los Angeles, CA 69.1 °F
Port San Luis, CA 61.0 °F

Nearby Weather Stations